sensor_id;sensor_type;location;lat;lon;timestamp;temperature;humidity
65046;DHT22;54657;52.022;5.534;2023-12-04T00:00:01;3.30;95.30
65046;DHT22;54657;52.022;5.534;2023-12-04T00:02:28;3.40;95.20
65046;DHT22;54657;52.022;5.534;2023-12-04T00:04:53;3.40;95.20
65046;DHT22;54657;52.022;5.534;2023-12-04T00:07:19;3.30;95.20
65046;DHT22;54657;52.022;5.534;2023-12-04T00:09:44;3.30;95.30
65046;DHT22;54657;52.022;5.534;2023-12-04T00:12:10;3.30;95.10
65046;DHT22;54657;52.022;5.534;2023-12-04T00:14:35;3.30;95.20
65046;DHT22;54657;52.022;5.534;2023-12-04T00:17:01;3.40;95.10
65046;DHT22;54657;52.022;5.534;2023-12-04T00:19:27;3.40;95.10
65046;DHT22;54657;52.022;5.534;2023-12-04T00:21:52;3.40;95.10
65046;DHT22;54657;52.022;5.534;2023-12-04T00:24:18;3.40;95.30
65046;DHT22;54657;52.022;5.534;2023-12-04T00:26:43;3.50;95.20
65046;DHT22;54657;52.022;5.534;2023-12-04T00:29:09;3.50;95.00
65046;DHT22;54657;52.022;5.534;2023-12-04T00:31:34;3.50;95.10
65046;DHT22;54657;52.022;5.534;2023-12-04T00:34:00;3.50;95.10
65046;DHT22;54657;52.022;5.534;2023-12-04T00:36:25;3.50;94.90
65046;DHT22;54657;52.022;5.534;2023-12-04T00:38:51;3.50;95.10
65046;DHT22;54657;52.022;5.534;2023-12-04T00:41:16;3.60;95.00
65046;DHT22;54657;52.022;5.534;2023-12-04T00:43:42;3.60;95.00
65046;DHT22;54657;52.022;5.534;2023-12-04T00:46:08;3.60;94.90
65046;DHT22;54657;52.022;5.534;2023-12-04T00:48:33;3.50;95.00
65046;DHT22;54657;52.022;5.534;2023-12-04T00:50:59;3.50;95.00
65046;DHT22;54657;52.022;5.534;2023-12-04T00:53:24;3.50;95.00
65046;DHT22;54657;52.022;5.534;2023-12-04T00:55:50;3.50;95.20
65046;DHT22;54657;52.022;5.534;2023-12-04T00:58:15;3.50;95.10
65046;DHT22;54657;52.022;5.534;2023-12-04T01:00:41;3.40;95.20
65046;DHT22;54657;52.022;5.534;2023-12-04T01:03:07;3.50;95.30
65046;DHT22;54657;52.022;5.534;2023-12-04T01:05:32;3.50;95.20
65046;DHT22;54657;52.022;5.534;2023-12-04T01:07:58;3.40;95.30
65046;DHT22;54657;52.022;5.534;2023-12-04T01:10:23;3.50;95.10
65046;DHT22;54657;52.022;5.534;2023-12-04T01:12:49;3.50;95.30
65046;DHT22;54657;52.022;5.534;2023-12-04T01:15:14;3.50;95.30
65046;DHT22;54657;52.022;5.534;2023-12-04T01:17:40;3.50;95.10
65046;DHT22;54657;52.022;5.534;2023-12-04T01:20:06;3.50;95.30
65046;DHT22;54657;52.022;5.534;2023-12-04T01:22:32;3.50;95.20
65046;DHT22;54657;52.022;5.534;2023-12-04T01:24:57;3.50;95.20
65046;DHT22;54657;52.022;5.534;2023-12-04T01:27:23;3.50;95.10
65046;DHT22;54657;52.022;5.534;2023-12-04T01:29:48;3.50;95.10
65046;DHT22;54657;52.022;5.534;2023-12-04T01:32:14;3.50;95.10
65046;DHT22;54657;52.022;5.534;2023-12-04T01:34:39;3.50;95.30
65046;DHT22;54657;52.022;5.534;2023-12-04T01:37:05;3.50;95.20
65046;DHT22;54657;52.022;5.534;2023-12-04T01:39:31;3.50;95.20
65046;DHT22;54657;52.022;5.534;2023-12-04T01:41:56;3.50;95.30
65046;DHT22;54657;52.022;5.534;2023-12-04T01:44:22;3.50;95.20
65046;DHT22;54657;52.022;5.534;2023-12-04T01:46:48;3.50;95.10
65046;DHT22;54657;52.022;5.534;2023-12-04T01:49:14;3.50;95.00
65046;DHT22;54657;52.022;5.534;2023-12-04T01:51:39;3.50;95.10
65046;DHT22;54657;52.022;5.534;2023-12-04T01:54:06;3.50;95.10
65046;DHT22;54657;52.022;5.534;2023-12-04T01:56:34;3.60;95.20
65046;DHT22;54657;52.022;5.534;2023-12-04T01:58:59;3.60;95.40
65046;DHT22;54657;52.022;5.534;2023-12-04T02:01:26;3.60;95.10
65046;DHT22;54657;52.022;5.534;2023-12-04T02:03:53;3.60;95.10
65046;DHT22;54657;52.022;5.534;2023-12-04T02:06:19;3.50;95.10
65046;DHT22;54657;52.022;5.534;2023-12-04T02:08:46;3.50;95.10
65046;DHT22;54657;52.022;5.534;2023-12-04T02:11:12;3.60;95.10
65046;DHT22;54657;52.022;5.534;2023-12-04T02:13:38;3.50;95.10
65046;DHT22;54657;52.022;5.534;2023-12-04T02:16:05;3.60;95.20
65046;DHT22;54657;52.022;5.534;2023-12-04T02:18:34;3.60;95.10
65046;DHT22;54657;52.022;5.534;2023-12-04T02:21:03;3.60;95.00
65046;DHT22;54657;52.022;5.534;2023-12-04T02:23:29;3.60;95.10
65046;DHT22;54657;52.022;5.534;2023-12-04T02:25:59;3.60;95.10
65046;DHT22;54657;52.022;5.534;2023-12-04T02:28:29;3.60;95.00
65046;DHT22;54657;52.022;5.534;2023-12-04T02:30:57;3.60;94.90
65046;DHT22;54657;52.022;5.534;2023-12-04T02:33:24;3.60;95.00
65046;DHT22;54657;52.022;5.534;2023-12-04T02:35:50;3.60;95.00
65046;DHT22;54657;52.022;5.534;2023-12-04T02:38:16;3.60;94.90
65046;DHT22;54657;52.022;5.534;2023-12-04T02:40:43;3.60;95.00
65046;DHT22;54657;52.022;5.534;2023-12-04T02:43:09;3.60;94.90
65046;DHT22;54657;52.022;5.534;2023-12-04T02:45:34;3.60;94.90
65046;DHT22;54657;52.022;5.534;2023-12-04T02:48:00;3.60;94.90
65046;DHT22;54657;52.022;5.534;2023-12-04T02:50:25;3.70;94.90
65046;DHT22;54657;52.022;5.534;2023-12-04T02:52:51;3.60;94.90
65046;DHT22;54657;52.022;5.534;2023-12-04T02:55:16;3.60;94.90
65046;DHT22;54657;52.022;5.534;2023-12-04T02:57:42;3.60;94.90
65046;DHT22;54657;52.022;5.534;2023-12-04T03:00:08;3.60;94.90
65046;DHT22;54657;52.022;5.534;2023-12-04T03:02:33;3.60;94.90
65046;DHT22;54657;52.022;5.534;2023-12-04T03:04:59;3.50;94.90
65046;DHT22;54657;52.022;5.534;2023-12-04T03:07:24;3.50;94.90
65046;DHT22;54657;52.022;5.534;2023-12-04T03:09:51;3.50;94.90
65046;DHT22;54657;52.022;5.534;2023-12-04T03:12:17;3.50;94.90
65046;DHT22;54657;52.022;5.534;2023-12-04T03:14:43;3.60;94.90
65046;DHT22;54657;52.022;5.534;2023-12-04T03:17:08;3.60;94.90
65046;DHT22;54657;52.022;5.534;2023-12-04T03:19:34;3.60;94.80
65046;DHT22;54657;52.022;5.534;2023-12-04T03:22:00;3.60;94.80
65046;DHT22;54657;52.022;5.534;2023-12-04T03:24:26;3.60;94.80
65046;DHT22;54657;52.022;5.534;2023-12-04T03:26:52;3.60;94.70
65046;DHT22;54657;52.022;5.534;2023-12-04T03:29:18;3.60;94.70
65046;DHT22;54657;52.022;5.534;2023-12-04T03:31:43;3.60;94.70
65046;DHT22;54657;52.022;5.534;2023-12-04T03:34:09;3.60;94.70
65046;DHT22;54657;52.022;5.534;2023-12-04T03:36:34;3.60;94.70
65046;DHT22;54657;52.022;5.534;2023-12-04T03:39:00;3.60;94.80
65046;DHT22;54657;52.022;5.534;2023-12-04T03:41:25;3.50;94.60
65046;DHT22;54657;52.022;5.534;2023-12-04T03:43:51;3.50;94.70
65046;DHT22;54657;52.022;5.534;2023-12-04T03:46:16;3.50;94.70
65046;DHT22;54657;52.022;5.534;2023-12-04T03:48:42;3.50;94.70
65046;DHT22;54657;52.022;5.534;2023-12-04T03:51:08;3.60;94.70
65046;DHT22;54657;52.022;5.534;2023-12-04T03:53:33;3.60;94.60
65046;DHT22;54657;52.022;5.534;2023-12-04T03:55:59;3.50;94.60
65046;DHT22;54657;52.022;5.534;2023-12-04T03:58:24;3.50;94.60
65046;DHT22;54657;52.022;5.534;2023-12-04T04:00:50;3.50;94.60
65046;DHT22;54657;52.022;5.534;2023-12-04T04:03:15;3.50;94.60
65046;DHT22;54657;52.022;5.534;2023-12-04T04:05:41;3.50;94.60
65046;DHT22;54657;52.022;5.534;2023-12-04T04:08:07;3.50;94.50
65046;DHT22;54657;52.022;5.534;2023-12-04T04:10:33;3.40;94.60
65046;DHT22;54657;52.022;5.534;2023-12-04T04:12:59;3.40;94.50
65046;DHT22;54657;52.022;5.534;2023-12-04T04:15:25;3.40;94.60
65046;DHT22;54657;52.022;5.534;2023-12-04T04:17:51;3.50;94.60
65046;DHT22;54657;52.022;5.534;2023-12-04T04:20:17;3.50;94.50
65046;DHT22;54657;52.022;5.534;2023-12-04T04:22:43;3.40;94.50
65046;DHT22;54657;52.022;5.534;2023-12-04T04:25:09;3.40;94.60
65046;DHT22;54657;52.022;5.534;2023-12-04T04:27:35;3.30;94.50
65046;DHT22;54657;52.022;5.534;2023-12-04T04:30:01;3.30;94.50
65046;DHT22;54657;52.022;5.534;2023-12-04T04:32:27;3.30;94.50
65046;DHT22;54657;52.022;5.534;2023-12-04T04:34:53;3.40;94.50
65046;DHT22;54657;52.022;5.534;2023-12-04T04:37:19;3.40;94.40
65046;DHT22;54657;52.022;5.534;2023-12-04T04:39:45;3.40;94.40
65046;DHT22;54657;52.022;5.534;2023-12-04T04:42:11;3.40;94.40
65046;DHT22;54657;52.022;5.534;2023-12-04T04:44:36;3.40;94.40
65046;DHT22;54657;52.022;5.534;2023-12-04T04:47:02;3.40;94.30
65046;DHT22;54657;52.022;5.534;2023-12-04T04:49:27;3.40;94.30
65046;DHT22;54657;52.022;5.534;2023-12-04T04:51:53;3.40;94.30
65046;DHT22;54657;52.022;5.534;2023-12-04T04:54:18;3.40;94.30
65046;DHT22;54657;52.022;5.534;2023-12-04T04:56:44;3.40;94.30
65046;DHT22;54657;52.022;5.534;2023-12-04T04:59:10;3.50;94.30
65046;DHT22;54657;52.022;5.534;2023-12-04T05:01:35;3.40;94.30
65046;DHT22;54657;52.022;5.534;2023-12-04T05:04:02;3.40;94.30
65046;DHT22;54657;52.022;5.534;2023-12-04T05:06:28;3.40;94.30
65046;DHT22;54657;52.022;5.534;2023-12-04T05:08:53;3.40;94.30
65046;DHT22;54657;52.022;5.534;2023-12-04T05:11:19;3.30;94.40
65046;DHT22;54657;52.022;5.534;2023-12-04T05:13:45;3.30;94.30
65046;DHT22;54657;52.022;5.534;2023-12-04T05:16:10;3.20;94.30
65046;DHT22;54657;52.022;5.534;2023-12-04T05:18:37;3.20;94.30
65046;DHT22;54657;52.022;5.534;2023-12-04T05:21:03;3.20;94.40
65046;DHT22;54657;52.022;5.534;2023-12-04T05:23:34;3.20;94.40
65046;DHT22;54657;52.022;5.534;2023-12-04T05:25:59;3.20;94.40
65046;DHT22;54657;52.022;5.534;2023-12-04T05:28:25;3.20;94.40
65046;DHT22;54657;52.022;5.534;2023-12-04T05:30:51;3.10;94.40
65046;DHT22;54657;52.022;5.534;2023-12-04T05:33:16;3.20;94.50
65046;DHT22;54657;52.022;5.534;2023-12-04T05:35:42;3.20;94.40
65046;DHT22;54657;52.022;5.534;2023-12-04T05:38:07;3.20;94.40
65046;DHT22;54657;52.022;5.534;2023-12-04T05:40:33;3.20;94.40
65046;DHT22;54657;52.022;5.534;2023-12-04T05:42:59;3.20;94.40
65046;DHT22;54657;52.022;5.534;2023-12-04T05:45:25;3.30;94.40
65046;DHT22;54657;52.022;5.534;2023-12-04T05:47:50;3.20;94.30
65046;DHT22;54657;52.022;5.534;2023-12-04T05:50:18;3.20;94.30
65046;DHT22;54657;52.022;5.534;2023-12-04T05:52:43;3.20;94.30
65046;DHT22;54657;52.022;5.534;2023-12-04T05:55:09;3.20;94.30
65046;DHT22;54657;52.022;5.534;2023-12-04T05:57:35;3.20;94.30
65046;DHT22;54657;52.022;5.534;2023-12-04T06:00:00;3.20;94.30
65046;DHT22;54657;52.022;5.534;2023-12-04T06:02:26;3.20;94.30
65046;DHT22;54657;52.022;5.534;2023-12-04T06:04:55;3.10;94.30
65046;DHT22;54657;52.022;5.534;2023-12-04T06:07:21;3.10;94.20
65046;DHT22;54657;52.022;5.534;2023-12-04T06:09:46;3.10;94.20
65046;DHT22;54657;52.022;5.534;2023-12-04T06:12:12;3.00;94.20
65046;DHT22;54657;52.022;5.534;2023-12-04T06:14:37;3.10;94.20
65046;DHT22;54657;52.022;5.534;2023-12-04T06:17:03;3.00;94.20
65046;DHT22;54657;52.022;5.534;2023-12-04T06:19:28;3.00;94.20
65046;DHT22;54657;52.022;5.534;2023-12-04T06:21:55;3.10;94.20
65046;DHT22;54657;52.022;5.534;2023-12-04T06:24:20;3.10;94.20
65046;DHT22;54657;52.022;5.534;2023-12-04T06:26:50;3.10;94.10
65046;DHT22;54657;52.022;5.534;2023-12-04T06:29:16;3.10;94.20
65046;DHT22;54657;52.022;5.534;2023-12-04T06:31:42;3.10;94.20
65046;DHT22;54657;52.022;5.534;2023-12-04T06:34:08;3.10;94.00
65046;DHT22;54657;52.022;5.534;2023-12-04T06:36:38;3.10;94.00
65046;DHT22;54657;52.022;5.534;2023-12-04T06:39:06;3.10;94.00
65046;DHT22;54657;52.022;5.534;2023-12-04T06:41:34;3.10;94.10
65046;DHT22;54657;52.022;5.534;2023-12-04T06:44:00;3.10;94.00
65046;DHT22;54657;52.022;5.534;2023-12-04T06:46:27;3.20;93.90
65046;DHT22;54657;52.022;5.534;2023-12-04T06:48:57;3.10;93.90
65046;DHT22;54657;52.022;5.534;2023-12-04T06:51:22;3.10;93.90
65046;DHT22;54657;52.022;5.534;2023-12-04T06:53:48;3.10;93.90
65046;DHT22;54657;52.022;5.534;2023-12-04T06:56:14;3.10;93.90
65046;DHT22;54657;52.022;5.534;2023-12-04T06:58:40;3.10;93.80
65046;DHT22;54657;52.022;5.534;2023-12-04T07:01:05;3.20;93.80
65046;DHT22;54657;52.022;5.534;2023-12-04T07:03:31;3.20;93.80
65046;DHT22;54657;52.022;5.534;2023-12-04T07:05:56;3.20;93.80
65046;DHT22;54657;52.022;5.534;2023-12-04T07:08:22;3.20;93.70
65046;DHT22;54657;52.022;5.534;2023-12-04T07:10:47;3.20;93.70
65046;DHT22;54657;52.022;5.534;2023-12-04T07:13:14;3.10;93.70
65046;DHT22;54657;52.022;5.534;2023-12-04T07:15:39;3.10;93.70
65046;DHT22;54657;52.022;5.534;2023-12-04T07:18:05;3.10;93.70
65046;DHT22;54657;52.022;5.534;2023-12-04T07:20:30;3.10;93.70
65046;DHT22;54657;52.022;5.534;2023-12-04T07:22:56;3.10;93.70
65046;DHT22;54657;52.022;5.534;2023-12-04T07:25:23;3.10;93.70
65046;DHT22;54657;52.022;5.534;2023-12-04T07:27:49;3.10;93.70
65046;DHT22;54657;52.022;5.534;2023-12-04T07:30:15;3.10;93.70
65046;DHT22;54657;52.022;5.534;2023-12-04T07:32:40;3.10;93.70
65046;DHT22;54657;52.022;5.534;2023-12-04T07:35:06;3.10;93.60
65046;DHT22;54657;52.022;5.534;2023-12-04T07:37:32;3.10;93.60
65046;DHT22;54657;52.022;5.534;2023-12-04T07:39:57;3.10;93.60
65046;DHT22;54657;52.022;5.534;2023-12-04T07:42:23;3.10;93.50
65046;DHT22;54657;52.022;5.534;2023-12-04T07:44:49;3.10;93.50
65046;DHT22;54657;52.022;5.534;2023-12-04T07:47:14;3.10;93.50
65046;DHT22;54657;52.022;5.534;2023-12-04T07:49:41;3.10;93.50
65046;DHT22;54657;52.022;5.534;2023-12-04T07:52:07;3.10;93.40
65046;DHT22;54657;52.022;5.534;2023-12-04T07:54:33;3.10;93.50
65046;DHT22;54657;52.022;5.534;2023-12-04T07:56:59;3.20;93.50
65046;DHT22;54657;52.022;5.534;2023-12-04T07:59:25;3.20;93.50
65046;DHT22;54657;52.022;5.534;2023-12-04T08:01:51;3.20;93.40
65046;DHT22;54657;52.022;5.534;2023-12-04T08:04:17;3.20;93.30
65046;DHT22;54657;52.022;5.534;2023-12-04T08:06:42;3.30;93.30
65046;DHT22;54657;52.022;5.534;2023-12-04T08:09:08;3.20;93.30
65046;DHT22;54657;52.022;5.534;2023-12-04T08:11:36;3.20;93.10
65046;DHT22;54657;52.022;5.534;2023-12-04T08:14:02;3.30;93.30
65046;DHT22;54657;52.022;5.534;2023-12-04T08:16:28;3.30;93.10
65046;DHT22;54657;52.022;5.534;2023-12-04T08:18:55;3.30;93.20
65046;DHT22;54657;52.022;5.534;2023-12-04T08:21:20;3.30;93.10
65046;DHT22;54657;52.022;5.534;2023-12-04T08:23:46;3.30;93.20
65046;DHT22;54657;52.022;5.534;2023-12-04T08:26:11;3.30;93.20
65046;DHT22;54657;52.022;5.534;2023-12-04T08:28:37;3.30;93.40
65046;DHT22;54657;52.022;5.534;2023-12-04T08:31:10;3.40;93.10
65046;DHT22;54657;52.022;5.534;2023-12-04T08:33:36;3.40;93.20
65046;DHT22;54657;52.022;5.534;2023-12-04T08:36:01;3.40;93.10
65046;DHT22;54657;52.022;5.534;2023-12-04T08:38:27;3.40;93.10
65046;DHT22;54657;52.022;5.534;2023-12-04T08:40:53;3.40;93.00
65046;DHT22;54657;52.022;5.534;2023-12-04T08:43:19;3.40;93.00
65046;DHT22;54657;52.022;5.534;2023-12-04T08:45:45;3.50;92.80
65046;DHT22;54657;52.022;5.534;2023-12-04T08:48:11;3.50;92.80
65046;DHT22;54657;52.022;5.534;2023-12-04T08:50:36;3.50;92.90
65046;DHT22;54657;52.022;5.534;2023-12-04T08:53:03;3.50;92.70
65046;DHT22;54657;52.022;5.534;2023-12-04T08:55:29;3.50;92.80
65046;DHT22;54657;52.022;5.534;2023-12-04T08:57:55;3.50;92.50
65046;DHT22;54657;52.022;5.534;2023-12-04T09:00:21;3.60;92.50
65046;DHT22;54657;52.022;5.534;2023-12-04T09:02:47;3.60;92.80
65046;DHT22;54657;52.022;5.534;2023-12-04T09:05:13;3.60;92.60
65046;DHT22;54657;52.022;5.534;2023-12-04T09:07:39;3.60;92.60
65046;DHT22;54657;52.022;5.534;2023-12-04T09:10:05;3.60;92.50
65046;DHT22;54657;52.022;5.534;2023-12-04T09:12:31;3.60;92.20
65046;DHT22;54657;52.022;5.534;2023-12-04T09:14:57;3.70;92.30
65046;DHT22;54657;52.022;5.534;2023-12-04T09:17:22;3.70;92.20
65046;DHT22;54657;52.022;5.534;2023-12-04T09:19:48;3.70;92.20
65046;DHT22;54657;52.022;5.534;2023-12-04T09:22:14;3.80;92.10
65046;DHT22;54657;52.022;5.534;2023-12-04T09:24:39;3.80;92.20
65046;DHT22;54657;52.022;5.534;2023-12-04T09:27:05;3.80;92.00
65046;DHT22;54657;52.022;5.534;2023-12-04T09:29:32;3.80;92.10
65046;DHT22;54657;52.022;5.534;2023-12-04T09:31:58;3.80;92.10
65046;DHT22;54657;52.022;5.534;2023-12-04T09:34:23;3.90;92.00
65046;DHT22;54657;52.022;5.534;2023-12-04T09:36:49;3.90;92.00
65046;DHT22;54657;52.022;5.534;2023-12-04T09:39:14;3.90;91.50
65046;DHT22;54657;52.022;5.534;2023-12-04T09:41:42;3.90;91.70
65046;DHT22;54657;52.022;5.534;2023-12-04T09:44:08;4.00;91.90
65046;DHT22;54657;52.022;5.534;2023-12-04T09:46:37;4.00;91.90
65046;DHT22;54657;52.022;5.534;2023-12-04T09:49:04;4.00;91.60
65046;DHT22;54657;52.022;5.534;2023-12-04T09:51:30;4.10;91.80
65046;DHT22;54657;52.022;5.534;2023-12-04T09:53:57;4.10;91.70
65046;DHT22;54657;52.022;5.534;2023-12-04T09:56:24;4.20;91.70
65046;DHT22;54657;52.022;5.534;2023-12-04T09:58:59;4.10;91.70
65046;DHT22;54657;52.022;5.534;2023-12-04T10:01:27;4.20;91.60
65046;DHT22;54657;52.022;5.534;2023-12-04T10:03:53;4.20;91.70
65046;DHT22;54657;52.022;5.534;2023-12-04T10:06:19;4.20;91.70
65046;DHT22;54657;52.022;5.534;2023-12-04T10:08:45;4.20;91.50
65046;DHT22;54657;52.022;5.534;2023-12-04T10:11:14;4.30;91.60
65046;DHT22;54657;52.022;5.534;2023-12-04T10:13:43;4.30;91.40
65046;DHT22;54657;52.022;5.534;2023-12-04T10:16:09;4.30;91.60
65046;DHT22;54657;52.022;5.534;2023-12-04T10:18:35;4.40;91.60
65046;DHT22;54657;52.022;5.534;2023-12-04T10:21:01;4.40;91.60
65046;DHT22;54657;52.022;5.534;2023-12-04T10:23:43;4.40;91.60
65046;DHT22;54657;52.022;5.534;2023-12-04T10:26:09;4.40;91.20
65046;DHT22;54657;52.022;5.534;2023-12-04T10:28:35;4.50;91.60
65046;DHT22;54657;52.022;5.534;2023-12-04T10:31:01;4.50;91.60
65046;DHT22;54657;52.022;5.534;2023-12-04T10:33:28;4.60;91.60
65046;DHT22;54657;52.022;5.534;2023-12-04T10:35:55;4.60;91.30
65046;DHT22;54657;52.022;5.534;2023-12-04T10:38:23;4.60;91.00
65046;DHT22;54657;52.022;5.534;2023-12-04T10:40:49;4.60;91.50
65046;DHT22;54657;52.022;5.534;2023-12-04T10:43:22;4.60;91.30
65046;DHT22;54657;52.022;5.534;2023-12-04T10:45:48;4.60;91.20
65046;DHT22;54657;52.022;5.534;2023-12-04T10:48:15;4.60;91.20
65046;DHT22;54657;52.022;5.534;2023-12-04T10:50:46;4.60;91.20
65046;DHT22;54657;52.022;5.534;2023-12-04T10:53:13;4.70;91.30
65046;DHT22;54657;52.022;5.534;2023-12-04T10:55:40;4.70;91.20
65046;DHT22;54657;52.022;5.534;2023-12-04T10:58:11;4.80;91.20
65046;DHT22;54657;52.022;5.534;2023-12-04T11:00:47;4.80;91.10
65046;DHT22;54657;52.022;5.534;2023-12-04T11:03:20;4.70;91.00
65046;DHT22;54657;52.022;5.534;2023-12-04T11:05:56;4.70;91.00
65046;DHT22;54657;52.022;5.534;2023-12-04T11:08:26;4.70;91.00
65046;DHT22;54657;52.022;5.534;2023-12-04T11:11:02;4.70;91.20
65046;DHT22;54657;52.022;5.534;2023-12-04T11:13:30;4.70;91.00
65046;DHT22;54657;52.022;5.534;2023-12-04T11:16:01;4.70;91.10
65046;DHT22;54657;52.022;5.534;2023-12-04T11:18:30;4.60;90.90
65046;DHT22;54657;52.022;5.534;2023-12-04T11:21:06;4.60;91.20
65046;DHT22;54657;52.022;5.534;2023-12-04T11:23:33;4.70;91.20
65046;DHT22;54657;52.022;5.534;2023-12-04T11:26:00;4.70;91.10
65046;DHT22;54657;52.022;5.534;2023-12-04T11:28:27;4.70;91.20
65046;DHT22;54657;52.022;5.534;2023-12-04T11:30:53;4.70;91.30
65046;DHT22;54657;52.022;5.534;2023-12-04T11:33:19;4.60;91.00
65046;DHT22;54657;52.022;5.534;2023-12-04T11:35:45;4.70;91.10
65046;DHT22;54657;52.022;5.534;2023-12-04T11:38:14;4.70;91.20
65046;DHT22;54657;52.022;5.534;2023-12-04T11:40:41;4.70;91.10
65046;DHT22;54657;52.022;5.534;2023-12-04T11:43:27;4.70;91.10
65046;DHT22;54657;52.022;5.534;2023-12-04T11:45:53;4.70;90.90
65046;DHT22;54657;52.022;5.534;2023-12-04T11:48:25;4.60;91.20
65046;DHT22;54657;52.022;5.534;2023-12-04T11:50:50;4.60;91.10
65046;DHT22;54657;52.022;5.534;2023-12-04T11:53:16;4.60;91.20
65046;DHT22;54657;52.022;5.534;2023-12-04T11:55:42;4.60;91.10
65046;DHT22;54657;52.022;5.534;2023-12-04T11:58:11;4.60;91.00
65046;DHT22;54657;52.022;5.534;2023-12-04T12:00:37;4.50;91.00
65046;DHT22;54657;52.022;5.534;2023-12-04T12:03:07;4.50;91.10
65046;DHT22;54657;52.022;5.534;2023-12-04T12:05:36;4.50;91.00
65046;DHT22;54657;52.022;5.534;2023-12-04T12:08:04;4.50;91.00
65046;DHT22;54657;52.022;5.534;2023-12-04T12:10:31;4.50;91.10
65046;DHT22;54657;52.022;5.534;2023-12-04T12:12:57;4.60;91.00
65046;DHT22;54657;52.022;5.534;2023-12-04T12:15:23;4.60;91.10
65046;DHT22;54657;52.022;5.534;2023-12-04T12:17:49;4.60;91.20
65046;DHT22;54657;52.022;5.534;2023-12-04T12:20:16;4.50;91.00
65046;DHT22;54657;52.022;5.534;2023-12-04T12:22:41;4.50;91.00
65046;DHT22;54657;52.022;5.534;2023-12-04T12:25:10;4.50;91.10
65046;DHT22;54657;52.022;5.534;2023-12-04T12:27:37;4.50;90.90
65046;DHT22;54657;52.022;5.534;2023-12-04T12:30:03;4.50;91.00
65046;DHT22;54657;52.022;5.534;2023-12-04T12:32:31;4.50;91.10
65046;DHT22;54657;52.022;5.534;2023-12-04T12:34:56;4.50;91.10
65046;DHT22;54657;52.022;5.534;2023-12-04T12:37:22;4.50;91.00
65046;DHT22;54657;52.022;5.534;2023-12-04T12:39:48;4.50;91.00
65046;DHT22;54657;52.022;5.534;2023-12-04T12:42:27;4.50;91.00
65046;DHT22;54657;52.022;5.534;2023-12-04T12:44:53;4.50;90.90
65046;DHT22;54657;52.022;5.534;2023-12-04T12:47:19;4.50;90.90
65046;DHT22;54657;52.022;5.534;2023-12-04T12:49:45;4.50;90.90
65046;DHT22;54657;52.022;5.534;2023-12-04T12:52:11;4.50;90.90
65046;DHT22;54657;52.022;5.534;2023-12-04T12:54:40;4.50;90.90
65046;DHT22;54657;52.022;5.534;2023-12-04T12:57:07;4.50;90.90
65046;DHT22;54657;52.022;5.534;2023-12-04T12:59:33;4.50;90.90
65046;DHT22;54657;52.022;5.534;2023-12-04T13:01:59;4.50;90.80
65046;DHT22;54657;52.022;5.534;2023-12-04T13:04:40;4.50;90.70
65046;DHT22;54657;52.022;5.534;2023-12-04T13:07:05;4.60;90.80
65046;DHT22;54657;52.022;5.534;2023-12-04T13:09:32;4.60;90.90
65046;DHT22;54657;52.022;5.534;2023-12-04T13:11:58;4.60;90.90
65046;DHT22;54657;52.022;5.534;2023-12-04T13:14:25;4.60;90.90
65046;DHT22;54657;52.022;5.534;2023-12-04T13:16:50;4.60;90.80
65046;DHT22;54657;52.022;5.534;2023-12-04T13:19:16;4.60;90.90
65046;DHT22;54657;52.022;5.534;2023-12-04T13:21:45;4.60;90.80
65046;DHT22;54657;52.022;5.534;2023-12-04T13:24:11;4.60;90.80
65046;DHT22;54657;52.022;5.534;2023-12-04T13:26:37;4.50;90.80
65046;DHT22;54657;52.022;5.534;2023-12-04T13:29:03;4.50;90.80
65046;DHT22;54657;52.022;5.534;2023-12-04T13:31:28;4.50;90.60
65046;DHT22;54657;52.022;5.534;2023-12-04T13:33:54;4.50;91.10
65046;DHT22;54657;52.022;5.534;2023-12-04T13:36:20;4.50;90.90
65046;DHT22;54657;52.022;5.534;2023-12-04T13:38:46;4.50;90.90
65046;DHT22;54657;52.022;5.534;2023-12-04T13:41:12;4.50;90.70
65046;DHT22;54657;52.022;5.534;2023-12-04T13:43:56;4.50;90.90
65046;DHT22;54657;52.022;5.534;2023-12-04T13:46:25;4.50;90.80
65046;DHT22;54657;52.022;5.534;2023-12-04T13:48:52;4.50;90.90
65046;DHT22;54657;52.022;5.534;2023-12-04T13:51:17;4.50;90.90
65046;DHT22;54657;52.022;5.534;2023-12-04T13:53:45;4.50;90.90
65046;DHT22;54657;52.022;5.534;2023-12-04T13:56:13;4.50;90.90
65046;DHT22;54657;52.022;5.534;2023-12-04T13:58:48;4.50;90.80
65046;DHT22;54657;52.022;5.534;2023-12-04T14:01:22;4.50;90.90
65046;DHT22;54657;52.022;5.534;2023-12-04T14:03:49;4.40;90.90
65046;DHT22;54657;52.022;5.534;2023-12-04T14:06:15;4.40;90.90
65046;DHT22;54657;52.022;5.534;2023-12-04T14:08:43;4.50;90.90
65046;DHT22;54657;52.022;5.534;2023-12-04T14:11:09;4.50;90.90
65046;DHT22;54657;52.022;5.534;2023-12-04T14:13:36;4.50;91.00
65046;DHT22;54657;52.022;5.534;2023-12-04T14:16:02;4.50;91.00
65046;DHT22;54657;52.022;5.534;2023-12-04T14:18:28;4.50;91.00
65046;DHT22;54657;52.022;5.534;2023-12-04T14:20:55;4.50;91.10
65046;DHT22;54657;52.022;5.534;2023-12-04T14:23:21;4.40;91.00
65046;DHT22;54657;52.022;5.534;2023-12-04T14:25:47;4.50;91.10
65046;DHT22;54657;52.022;5.534;2023-12-04T14:28:13;4.40;90.90
65046;DHT22;54657;52.022;5.534;2023-12-04T14:30:38;4.40;91.10
65046;DHT22;54657;52.022;5.534;2023-12-04T14:33:05;4.40;91.10
65046;DHT22;54657;52.022;5.534;2023-12-04T14:35:31;4.40;91.20
65046;DHT22;54657;52.022;5.534;2023-12-04T14:37:57;4.40;91.20
65046;DHT22;54657;52.022;5.534;2023-12-04T14:40:22;4.40;91.20
65046;DHT22;54657;52.022;5.534;2023-12-04T14:42:48;4.40;91.30
65046;DHT22;54657;52.022;5.534;2023-12-04T14:45:14;4.40;91.30
65046;DHT22;54657;52.022;5.534;2023-12-04T14:47:42;4.40;91.40
65046;DHT22;54657;52.022;5.534;2023-12-04T14:50:08;4.30;91.50
65046;DHT22;54657;52.022;5.534;2023-12-04T14:52:35;4.40;91.50
65046;DHT22;54657;52.022;5.534;2023-12-04T14:55:04;4.40;91.60
65046;DHT22;54657;52.022;5.534;2023-12-04T14:57:35;4.40;91.60
65046;DHT22;54657;52.022;5.534;2023-12-04T15:00:21;4.40;91.60
65046;DHT22;54657;52.022;5.534;2023-12-04T15:03:25;4.40;91.60
65046;DHT22;54657;52.022;5.534;2023-12-04T15:06:09;4.30;91.70
65046;DHT22;54657;52.022;5.534;2023-12-04T15:08:37;4.30;91.70
65046;DHT22;54657;52.022;5.534;2023-12-04T15:11:22;4.30;91.80
65046;DHT22;54657;52.022;5.534;2023-12-04T15:14:02;4.30;91.80
65046;DHT22;54657;52.022;5.534;2023-12-04T15:16:34;4.30;91.90
65046;DHT22;54657;52.022;5.534;2023-12-04T15:19:12;4.30;91.90
65046;DHT22;54657;52.022;5.534;2023-12-04T15:21:38;4.40;91.90
65046;DHT22;54657;52.022;5.534;2023-12-04T15:24:05;4.40;92.10
65046;DHT22;54657;52.022;5.534;2023-12-04T15:26:32;4.40;92.10
65046;DHT22;54657;52.022;5.534;2023-12-04T15:28:58;4.40;92.10
65046;DHT22;54657;52.022;5.534;2023-12-04T15:31:23;4.30;92.10
65046;DHT22;54657;52.022;5.534;2023-12-04T15:33:49;4.30;92.10
65046;DHT22;54657;52.022;5.534;2023-12-04T15:36:14;4.30;92.20
65046;DHT22;54657;52.022;5.534;2023-12-04T15:38:40;4.30;92.30
65046;DHT22;54657;52.022;5.534;2023-12-04T15:41:06;4.20;92.30